Terminal Aerodrome Forecast
Issued by NWS

Home | Current Version | Previous Version | Text Only | Print | Product List | Glossary On
Versions: 1 2 3 4 5 6 7 8 9 10 11 12 13
000
FTUS45 KABQ 190500
TAFAEG
TAF
KAEG 190520Z 1906/2006 31012KT P6SM SCT100
     FM191100 36007KT P6SM SKC
     FM191900 30011G17KT P6SM FEW070
     FM200000 29009KT P6SM SCT070
     FM200500 VRB04KT P6SM FEW070=

USA.gov is the U.S. government's official web portal to all federal, state and local government web resources and services.